Time;durP1;ratioP1;P1;durP2;ratioP2;P2;SDS_P1;SDS_P2;PMS_P1;PMS_P2;Temp;Humidity;BMP_temperature;BMP_pressure;BME280_temperature;BME280_humidity;BME280_pressure;Samples;Min_cycle;Max_cycle;Signal;HPM_P1;HPM_P2
2021/03/02 00:02:02;;;;;;;48.22;15.02;;;;;;;;;;5004636;28;20036;-60
2021/03/02 00:04:28;;;;;;;49.70;15.40;;;;;;;;;;5005096;28;20110;-59
2021/03/02 00:06:56;;;;;;;54.58;15.90;;;;;;;;;;5022656;28;20074;-59
2021/03/02 00:09:22;;;;;;;49.60;15.48;;;;;;;;;;5003682;28;20911;-59
2021/03/02 00:11:50;;;;;;;51.38;14.57;;;;;;;;;;5020261;28;20500;-60
2021/03/02 00:14:17;;;;;;;59.33;16.40;;;;;;;;;;5005973;28;20033;-61
2021/03/02 00:16:43;;;;;;;60.80;17.45;;;;;;;;;;5021870;28;20151;-59
2021/03/02 00:19:14;;;;;;;61.20;15.70;;;;;;;;;;5022191;28;20033;-60
2021/03/02 00:21:42;;;;;;;51.60;15.05;;;;;;;;;;5022101;28;20052;-60
2021/03/02 00:24:10;;;;;;;58.25;16.23;;;;;;;;;;5021693;28;20115;-59
2021/03/02 00:26:41;;;;;;;59.85;15.98;;;;;;;;;;5001128;28;20036;-59
2021/03/02 00:29:08;;;;;;;53.92;16.33;;;;;;;;;;5021896;28;20082;-59
2021/03/02 00:31:37;;;;;;;57.63;16.05;;;;;;;;;;4987093;28;20041;-59
2021/03/02 00:34:05;;;;;;;59.10;17.00;;;;;;;;;;5022972;28;20728;-60
2021/03/02 00:36:33;;;;;;;64.57;16.55;;;;;;;;;;5000800;28;20045;-60
2021/03/02 00:38:59;;;;;;;51.67;14.77;;;;;;;;;;5022308;28;20419;-60
2021/03/02 00:41:30;;;;;;;57.65;16.30;;;;;;;;;;5002862;28;20087;-61
2021/03/02 00:43:56;;;;;;;64.53;17.67;;;;;;;;;;4984131;28;20104;-60
2021/03/02 00:46:22;;;;;;;71.57;20.42;;;;;;;;;;4985041;28;20047;-59
2021/03/02 00:48:50;;;;;;;59.85;16.58;;;;;;;;;;5020620;28;20029;-60
2021/03/02 00:51:16;;;;;;;57.03;17.23;;;;;;;;;;4985710;28;20021;-60
2021/03/02 00:53:44;;;;;;;65.30;18.95;;;;;;;;;;5022188;28;20579;-60
2021/03/02 00:56:12;;;;;;;59.58;17.00;;;;;;;;;;4984588;28;20033;-61
2021/03/02 00:58:37;;;;;;;67.53;18.58;;;;;;;;;;5020210;28;20021;-60
2021/03/02 01:01:03;;;;;;;55.58;16.70;;;;;;;;;;5000581;28;20030;-60
2021/03/02 01:03:31;;;;;;;59.00;17.02;;;;;;;;;;5016919;28;20059;-60
2021/03/02 01:05:59;;;;;;;59.05;16.17;;;;;;;;;;4982379;28;20087;-61
2021/03/02 01:08:26;;;;;;;59.28;17.20;;;;;;;;;;5020321;28;20029;-60
2021/03/02 01:10:52;;;;;;;56.15;16.08;;;;;;;;;;4997825;28;20064;-60
2021/03/02 01:13:17;;;;;;;59.63;16.10;;;;;;;;;;4981593;28;20046;-60
2021/03/02 01:15:45;;;;;;;53.25;15.82;;;;;;;;;;4995870;28;20568;-60
2021/03/02 01:18:10;;;;;;;54.10;18.67;;;;;;;;;;5001101;28;20097;-61
2021/03/02 01:20:38;;;;;;;46.85;14.13;;;;;;;;;;4998926;28;20152;-60
2021/03/02 01:23:04;;;;;;;55.10;14.82;;;;;;;;;;4984270;28;20363;-60
2021/03/02 01:25:29;;;;;;;49.67;14.77;;;;;;;;;;4999089;28;20572;-60
2021/03/02 01:27:55;;;;;;;60.28;15.75;;;;;;;;;;4984453;28;20535;-61
2021/03/02 01:30:27;;;;;;;69.30;16.60;;;;;;;;;;5001440;28;20029;-59
2021/03/02 01:32:55;;;;;;;67.47;16.83;;;;;;;;;;4981944;28;20029;-61
2021/03/02 01:35:20;;;;;;;63.67;17.13;;;;;;;;;;4998219;28;20030;-61
2021/03/02 01:37:49;;;;;;;51.90;17.42;;;;;;;;;;4984232;28;20099;-60
2021/03/02 01:40:16;;;;;;;59.25;17.02;;;;;;;;;;5000053;28;20514;-60
2021/03/02 01:42:41;;;;;;;60.10;17.90;;;;;;;;;;4982951;28;20053;-60
2021/03/02 01:45:08;;;;;;;47.78;16.13;;;;;;;;;;4977587;28;21911;-61
2021/03/02 01:47:35;;;;;;;64.53;17.70;;;;;;;;;;4998181;28;20037;-61
2021/03/02 01:50:05;;;;;;;56.15;16.27;;;;;;;;;;4995471;28;20027;-60
2021/03/02 01:52:33;;;;;;;58.58;16.92;;;;;;;;;;4983602;28;20041;-60
2021/03/02 01:55:01;;;;;;;55.13;17.33;;;;;;;;;;5000075;28;21976;-60
2021/03/02 01:57:26;;;;;;;60.47;18.73;;;;;;;;;;5000963;28;20046;-62
2021/03/02 01:59:52;;;;;;;60.58;16.48;;;;;;;;;;4999952;28;20045;-60
2021/03/02 02:02:25;;;;;;;58.75;18.05;;;;;;;;;;5000237;28;20136;-59
2021/03/02 02:04:54;;;;;;;69.53;17.65;;;;;;;;;;4997576;28;20667;-60
2021/03/02 02:07:22;;;;;;;69.93;17.08;;;;;;;;;;4997822;28;20025;-60
2021/03/02 02:10:11;;;;;;;52.92;15.77;;;;;;;;;;4999973;28;20026;-60
2021/03/02 02:12:41;;;;;;;54.53;14.50;;;;;;;;;;5009066;28;20107;-60
2021/03/02 02:15:06;;;;;;;57.55;17.55;;;;;;;;;;4984876;28;20066;-61
2021/03/02 02:17:58;;;;;;;60.67;17.40;;;;;;;;;;4981914;28;20610;-62
2021/03/02 02:20:30;;;;;;;60.40;16.33;;;;;;;;;;4997574;28;20041;-61
2021/03/02 02:22:57;;;;;;;60.33;17.13;;;;;;;;;;5006037;28;20060;-60
2021/03/02 02:25:28;;;;;;;65.68;18.17;;;;;;;;;;5004774;28;20488;-60
2021/03/02 02:27:57;;;;;;;67.55;18.88;;;;;;;;;;5006387;28;20077;-59
2021/03/02 02:30:24;;;;;;;63.15;16.17;;;;;;;;;;5006582;28;20037;-59
2021/03/02 02:32:54;;;;;;;62.22;18.27;;;;;;;;;;5005940;28;20025;-61
2021/03/02 02:35:22;;;;;;;56.30;18.33;;;;;;;;;;5025251;28;20037;-59
2021/03/02 02:37:52;;;;;;;66.07;18.25;;;;;;;;;;4990108;28;20122;-60
2021/03/02 02:40:19;;;;;;;59.13;18.60;;;;;;;;;;4989748;28;20033;-60
2021/03/02 02:42:47;;;;;;;64.10;18.27;;;;;;;;;;5026313;28;20104;-62
2021/03/02 02:45:13;;;;;;;64.75;19.33;;;;;;;;;;5001525;28;20978;-60
2021/03/02 02:47:39;;;;;;;57.33;18.27;;;;;;;;;;5027336;28;20041;-61
2021/03/02 02:50:05;;;;;;;57.80;17.73;;;;;;;;;;4989968;28;20029;-60
2021/03/02 02:52:31;;;;;;;53.47;16.00;;;;;;;;;;5007080;28;20036;-60
2021/03/02 02:54:58;;;;;;;58.00;16.85;;;;;;;;;;5023184;28;20029;-60
2021/03/02 02:57:25;;;;;;;63.25;18.00;;;;;;;;;;5024934;28;20032;-60
2021/03/02 02:59:51;;;;;;;59.55;17.73;;;;;;;;;;5007571;28;20128;-59
2021/03/02 03:02:19;;;;;;;56.88;18.15;;;;;;;;;;4991588;28;20067;-61
2021/03/02 03:04:55;;;;;;;63.47;18.13;;;;;;;;;;5023261;28;20112;-59
2021/03/02 03:07:27;;;;;;;52.08;16.40;;;;;;;;;;5023814;28;20029;-62
2021/03/02 03:09:54;;;;;;;53.47;16.95;;;;;;;;;;5004208;28;20033;-61
2021/03/02 03:12:20;;;;;;;55.47;17.83;;;;;;;;;;5005844;28;20053;-61
2021/03/02 03:14:51;;;;;;;62.15;19.90;;;;;;;;;;5023812;28;20025;-60
2021/03/02 03:17:17;;;;;;;62.67;19.00;;;;;;;;;;5020666;28;20072;-59
2021/03/02 03:19:48;;;;;;;59.05;19.77;;;;;;;;;;5022937;28;20022;-59
2021/03/02 03:22:15;;;;;;;59.55;18.27;;;;;;;;;;5023564;28;20033;-60
2021/03/02 03:24:43;;;;;;;57.55;17.48;;;;;;;;;;5005239;28;20752;-60
2021/03/02 03:27:12;;;;;;;60.30;18.35;;;;;;;;;;4987120;28;20057;-59
2021/03/02 03:29:37;;;;;;;56.00;17.58;;;;;;;;;;5022239;28;20106;-61
2021/03/02 03:32:04;;;;;;;63.75;17.38;;;;;;;;;;5022709;28;20032;-59
2021/03/02 03:34:33;;;;;;;53.78;17.17;;;;;;;;;;5023422;28;20041;-59
2021/03/02 03:36:59;;;;;;;68.05;19.50;;;;;;;;;;4999342;28;20123;-59
2021/03/02 03:39:25;;;;;;;54.15;16.58;;;;;;;;;;5022365;28;20672;-59
2021/03/02 03:41:51;;;;;;;49.42;17.20;;;;;;;;;;4985757;28;20037;-60
2021/03/02 03:44:19;;;;;;;71.38;19.65;;;;;;;;;;5023757;28;20033;-60
2021/03/02 03:46:45;;;;;;;65.38;17.75;;;;;;;;;;5002437;28;20045;-59
2021/03/02 03:49:13;;;;;;;56.60;17.50;;;;;;;;;;5005127;28;20560;-59
2021/03/02 03:51:45;;;;;;;59.92;17.83;;;;;;;;;;4987112;28;20021;-60
2021/03/02 03:54:11;;;;;;;60.05;18.92;;;;;;;;;;4998509;28;20025;-59
2021/03/02 03:56:37;;;;;;;58.53;18.88;;;;;;;;;;5002687;28;20060;-59
2021/03/02 03:59:03;;;;;;;71.93;18.67;;;;;;;;;;5005826;28;20041;-60
2021/03/02 04:01:33;;;;;;;66.05;19.50;;;;;;;;;;5004154;28;20029;-59
2021/03/02 04:04:03;;;;;;;74.50;19.33;;;;;;;;;;5005143;28;20124;-59
2021/03/02 04:06:32;;;;;;;76.22;21.65;;;;;;;;;;5004226;28;20033;-59
2021/03/02 04:08:58;;;;;;;61.90;18.48;;;;;;;;;;4983844;28;20025;-59
2021/03/02 04:11:23;;;;;;;82.60;23.20;;;;;;;;;;5004707;28;20029;-61
2021/03/02 04:13:49;;;;;;;77.55;20.88;;;;;;;;;;5022446;28;20492;-60
2021/03/02 04:16:15;;;;;;;84.63;20.85;;;;;;;;;;5022007;28;20056;-60
2021/03/02 04:18:40;;;;;;;93.47;21.98;;;;;;;;;;5004352;28;20056;-59
2021/03/02 04:21:05;;;;;;;72.07;18.33;;;;;;;;;;5021326;28;20029;-59
2021/03/02 04:23:33;;;;;;;86.00;22.33;;;;;;;;;;5002305;28;20130;-60
2021/03/02 04:26:01;;;;;;;80.95;21.40;;;;;;;;;;4986939;28;20032;-61
2021/03/02 04:28:29;;;;;;;58.97;18.00;;;;;;;;;;5022546;28;20536;-60
2021/03/02 04:30:55;;;;;;;86.88;21.25;;;;;;;;;;4989714;28;20033;-60
2021/03/02 04:33:20;;;;;;;82.32;21.38;;;;;;;;;;5004330;28;20037;-61
2021/03/02 04:35:46;;;;;;;89.00;20.38;;;;;;;;;;5002856;28;20645;-60
2021/03/02 04:38:11;;;;;;;83.97;21.08;;;;;;;;;;4986901;28;20515;-60
2021/03/02 04:40:37;;;;;;;81.70;20.55;;;;;;;;;;5004024;28;20033;-60
2021/03/02 04:43:03;;;;;;;72.80;19.38;;;;;;;;;;5002841;28;20079;-59
2021/03/02 04:45:28;;;;;;;77.03;21.23;;;;;;;;;;4983772;28;20032;-62
2021/03/02 04:47:54;;;;;;;87.90;22.67;;;;;;;;;;4985639;28;20527;-60
2021/03/02 04:50:24;;;;;;;67.13;19.33;;;;;;;;;;4999567;28;20572;-60
2021/03/02 04:52:51;;;;;;;77.28;20.33;;;;;;;;;;5005639;28;20033;-59
2021/03/02 04:55:17;;;;;;;74.95;20.58;;;;;;;;;;4987689;28;20021;-60
2021/03/02 04:57:43;;;;;;;78.30;20.80;;;;;;;;;;5021059;28;20032;-60
2021/03/02 05:00:10;;;;;;;72.40;20.77;;;;;;;;;;5003168;28;20061;-59
2021/03/02 05:02:38;;;;;;;71.53;20.10;;;;;;;;;;5003045;28;20040;-60
2021/03/02 05:05:09;;;;;;;63.90;18.40;;;;;;;;;;4986240;28;20040;-60
2021/03/02 05:07:36;;;;;;;67.30;18.75;;;;;;;;;;4987821;28;20041;-60
2021/03/02 05:10:02;;;;;;;64.32;18.95;;;;;;;;;;4983857;28;20048;-59
2021/03/02 05:12:28;;;;;;;64.38;18.00;;;;;;;;;;5003658;28;20833;-61
2021/03/02 05:14:59;;;;;;;72.82;19.52;;;;;;;;;;4988429;28;20522;-61
2021/03/02 05:17:27;;;;;;;79.68;19.30;;;;;;;;;;4986643;28;20040;-61
2021/03/02 05:19:52;;;;;;;70.75;20.00;;;;;;;;;;5003339;28;20040;-62
2021/03/02 05:22:18;;;;;;;70.80;20.10;;;;;;;;;;5020180;28;20029;-60
2021/03/02 05:24:44;;;;;;;66.18;19.10;;;;;;;;;;5021393;28;20408;-61
2021/03/02 05:27:09;;;;;;;59.00;18.83;;;;;;;;;;5002646;28;20610;-59
2021/03/02 05:29:34;;;;;;;60.42;19.15;;;;;;;;;;4987163;28;20029;-60
2021/03/02 05:32:00;;;;;;;64.82;18.40;;;;;;;;;;4987283;28;20116;-61
2021/03/02 05:34:26;;;;;;;66.40;18.92;;;;;;;;;;5005019;28;21050;-59
2021/03/02 05:36:51;;;;;;;58.08;17.45;;;;;;;;;;5021998;28;20432;-59
2021/03/02 05:39:19;;;;;;;64.80;17.65;;;;;;;;;;5003819;28;20037;-57
2021/03/02 05:41:45;;;;;;;63.97;17.67;;;;;;;;;;5021476;28;20025;-60
2021/03/02 05:44:12;;;;;;;81.15;19.73;;;;;;;;;;5020814;28;20033;-60
2021/03/02 05:46:41;;;;;;;63.85;19.23;;;;;;;;;;5003419;28;20124;-61
2021/03/02 05:49:09;;;;;;;65.03;16.42;;;;;;;;;;5021639;28;20028;-61
2021/03/02 05:51:37;;;;;;;58.47;17.25;;;;;;;;;;5022262;28;20108;-63
2021/03/02 05:54:03;;;;;;;64.32;18.25;;;;;;;;;;5020393;28;20091;-60
2021/03/02 05:56:29;;;;;;;75.53;19.08;;;;;;;;;;4989226;28;20041;-60
2021/03/02 05:58:54;;;;;;;66.05;17.48;;;;;;;;;;5006967;28;20147;-61
2021/03/02 06:01:20;;;;;;;77.70;20.90;;;;;;;;;;4989053;28;20052;-61
2021/03/02 06:03:46;;;;;;;62.20;17.05;;;;;;;;;;5007646;28;20512;-60
2021/03/02 06:06:14;;;;;;;70.35;16.75;;;;;;;;;;5005304;28;20037;-60
2021/03/02 06:08:39;;;;;;;68.57;19.30;;;;;;;;;;4990614;28;20121;-59
2021/03/02 06:11:23;;;;;;;69.43;18.50;;;;;;;;;;5004067;28;20479;-60
2021/03/02 06:13:56;;;;;;;55.45;16.67;;;;;;;;;;5023232;28;20095;-59
2021/03/02 06:16:24;;;;;;;64.60;18.58;;;;;;;;;;4987565;28;20047;-59
2021/03/02 06:18:52;;;;;;;66.93;17.75;;;;;;;;;;5023703;28;20040;-58
2021/03/02 06:21:21;;;;;;;62.00;16.90;;;;;;;;;;5023411;28;20055;-60
2021/03/02 06:23:52;;;;;;;65.13;18.58;;;;;;;;;;4988129;28;20571;-61
2021/03/02 06:26:24;;;;;;;68.93;17.80;;;;;;;;;;5004433;28;20040;-59
2021/03/02 06:28:57;;;;;;;48.95;15.48;;;;;;;;;;5005219;28;20032;-60
2021/03/02 06:31:33;;;;;;;53.78;15.45;;;;;;;;;;5015107;28;20033;-60
2021/03/02 06:34:16;;;;;;;60.53;16.35;;;;;;;;;;5023988;28;20151;-60
2021/03/02 06:37:01;;;;;;;58.83;16.70;;;;;;;;;;5022050;28;20144;-60
2021/03/02 06:39:30;;;;;;;59.78;17.55;;;;;;;;;;5022563;28;20056;-60
2021/03/02 06:42:19;;;;;;;61.75;18.00;;;;;;;;;;5001613;28;20079;-60
2021/03/02 06:44:51;;;;;;;50.45;15.60;;;;;;;;;;5004687;28;20067;-60
2021/03/02 06:47:31;;;;;;;57.20;14.50;;;;;;;;;;5022319;28;20044;-61
2021/03/02 06:49:59;;;;;;;55.42;16.70;;;;;;;;;;5002254;28;20075;-59
2021/03/02 06:52:25;;;;;;;49.38;15.45;;;;;;;;;;5001515;28;20037;-59
2021/03/02 06:54:53;;;;;;;46.17;15.05;;;;;;;;;;5024288;28;20079;-62
2021/03/02 06:57:24;;;;;;;53.90;15.38;;;;;;;;;;5004410;28;20036;-59
2021/03/02 06:59:54;;;;;;;70.35;15.05;;;;;;;;;;5005939;28;20163;-63
2021/03/02 07:02:35;;;;;;;52.00;16.83;;;;;;;;;;5005893;28;20068;-60
2021/03/02 07:05:05;;;;;;;48.03;15.80;;;;;;;;;;5022320;28;20056;-60
2021/03/02 07:07:30;;;;;;;51.97;15.85;;;;;;;;;;4988766;28;20110;-61
2021/03/02 07:10:00;;;;;;;48.88;15.48;;;;;;;;;;5003058;28;20045;-59
2021/03/02 07:12:30;;;;;;;58.70;16.45;;;;;;;;;;5024525;28;20094;-59
2021/03/02 07:15:02;;;;;;;55.00;16.35;;;;;;;;;;5022439;28;20388;-60
2021/03/02 07:17:28;;;;;;;51.03;16.25;;;;;;;;;;5022015;28;20108;-61
2021/03/02 07:19:56;;;;;;;59.45;16.73;;;;;;;;;;5024042;28;20037;-59
2021/03/02 07:22:21;;;;;;;54.75;15.48;;;;;;;;;;5006235;28;20079;-60
2021/03/02 07:24:47;;;;;;;45.38;14.80;;;;;;;;;;5005773;28;20036;-59
2021/03/02 07:27:13;;;;;;;54.38;14.32;;;;;;;;;;4986719;28;20036;-61
2021/03/02 07:29:39;;;;;;;49.65;15.75;;;;;;;;;;5000717;28;20673;-59
2021/03/02 07:32:08;;;;;;;50.40;16.55;;;;;;;;;;5004326;28;20078;-61
2021/03/02 07:34:34;;;;;;;51.55;16.55;;;;;;;;;;5003738;28;20124;-60
2021/03/02 07:37:03;;;;;;;69.55;16.15;;;;;;;;;;5004171;28;20108;-61
2021/03/02 07:39:32;;;;;;;39.50;14.43;;;;;;;;;;5004933;28;20121;-60
2021/03/02 07:41:58;;;;;;;46.90;14.88;;;;;;;;;;5017228;28;20052;-60
2021/03/02 07:44:25;;;;;;;50.55;16.02;;;;;;;;;;4981146;28;20117;-59
2021/03/02 07:46:56;;;;;;;47.80;16.13;;;;;;;;;;4994608;28;20048;-60
2021/03/02 07:49:22;;;;;;;53.00;16.05;;;;;;;;;;5005271;28;20041;-59
2021/03/02 07:51:56;;;;;;;52.10;16.60;;;;;;;;;;5001703;28;20130;-59
2021/03/02 07:54:23;;;;;;;53.20;17.17;;;;;;;;;;5003670;28;20080;-61
2021/03/02 07:57:11;;;;;;;54.63;17.58;;;;;;;;;;4990646;28;20064;-60
2021/03/02 07:59:37;;;;;;;52.30;17.52;;;;;;;;;;5008625;28;22411;-60
2021/03/02 08:02:15;;;;;;;45.00;15.15;;;;;;;;;;4990222;28;20037;-59
2021/03/02 08:04:42;;;;;;;51.92;15.05;;;;;;;;;;5004422;28;20037;-60
2021/03/02 08:07:17;;;;;;;48.22;16.48;;;;;;;;;;5022342;28;20044;-59
2021/03/02 08:09:45;;;;;;;46.65;14.88;;;;;;;;;;5003608;28;20037;-60
2021/03/02 08:12:31;;;;;;;38.15;14.80;;;;;;;;;;5004630;28;20568;-60
2021/03/02 08:14:57;;;;;;;44.55;14.55;;;;;;;;;;5000633;28;20072;-60
2021/03/02 08:17:25;;;;;;;39.13;12.93;;;;;;;;;;5005124;28;20087;-60
2021/03/02 08:20:02;;;;;;;39.53;14.43;;;;;;;;;;5014751;28;20041;-59
2021/03/02 08:22:30;;;;;;;40.75;15.68;;;;;;;;;;4987099;28;20045;-61
2021/03/02 08:24:59;;;;;;;37.03;14.50;;;;;;;;;;5003470;28;20166;-61
2021/03/02 08:27:42;;;;;;;53.00;16.13;;;;;;;;;;5004655;28;20046;-59
2021/03/02 08:30:08;;;;;;;32.72;12.80;;;;;;;;;;4986151;28;20056;-60
2021/03/02 08:32:40;;;;;;;40.08;14.13;;;;;;;;;;5001952;28;20742;-61
2021/03/02 08:35:10;;;;;;;39.00;15.00;;;;;;;;;;5002202;28;20704;-59
2021/03/02 08:37:46;;;;;;;36.63;13.02;;;;;;;;;;4999134;28;20539;-60
2021/03/02 08:40:14;;;;;;;32.25;13.63;;;;;;;;;;5002420;28;20037;-60
2021/03/02 08:43:02;;;;;;;39.42;13.52;;;;;;;;;;5001797;28;20029;-60
2021/03/02 08:45:28;;;;;;;36.10;13.20;;;;;;;;;;4982465;28;20042;-60
2021/03/02 08:48:12;;;;;;;31.75;13.05;;;;;;;;;;5003795;28;20117;-61
2021/03/02 08:50:42;;;;;;;36.30;13.60;;;;;;;;;;5016039;28;20140;-59
2021/03/02 08:53:36;;;;;;;31.77;13.63;;;;;;;;;;5000161;28;20120;-61
2021/03/02 08:56:05;;;;;;;38.60;13.57;;;;;;;;;;4998708;28;20647;-58
2021/03/02 08:58:32;;;;;;;31.88;13.15;;;;;;;;;;5002064;28;20064;-59
2021/03/02 09:00:59;;;;;;;33.20;13.23;;;;;;;;;;4998015;28;20512;-61
2021/03/02 09:03:27;;;;;;;35.20;13.32;;;;;;;;;;5002559;28;20037;-60
2021/03/02 09:06:06;;;;;;;31.95;12.38;;;;;;;;;;5000312;28;20044;-60
2021/03/02 09:08:41;;;;;;;24.38;11.73;;;;;;;;;;5000225;28;20059;-59
2021/03/02 09:11:07;;;;;;;32.40;13.52;;;;;;;;;;5002314;28;20025;-60
2021/03/02 09:13:34;;;;;;;25.70;11.50;;;;;;;;;;4998499;28;20106;-60
2021/03/02 09:16:20;;;;;;;24.75;11.85;;;;;;;;;;5002203;28;20049;-61
2021/03/02 09:18:56;;;;;;;28.05;12.20;;;;;;;;;;4999370;28;20041;-61
2021/03/02 09:21:24;;;;;;;30.40;12.93;;;;;;;;;;4982640;28;20045;-60
2021/03/02 09:23:49;;;;;;;29.95;13.15;;;;;;;;;;5001132;28;20045;-60
2021/03/02 09:26:21;;;;;;;29.15;13.02;;;;;;;;;;5016020;28;20045;-61
2021/03/02 09:28:53;;;;;;;37.00;14.75;;;;;;;;;;5020679;28;20037;-59
2021/03/02 09:31:21;;;;;;;32.60;13.13;;;;;;;;;;4996223;28;20380;-60
2021/03/02 09:33:53;;;;;;;30.40;13.20;;;;;;;;;;5006531;28;20204;-60
2021/03/02 09:36:21;;;;;;;30.73;12.95;;;;;;;;;;5005593;28;20026;-60
2021/03/02 09:38:47;;;;;;;26.55;12.23;;;;;;;;;;5005835;28;20030;-60
2021/03/02 09:41:28;;;;;;;29.60;13.27;;;;;;;;;;5004546;28;20118;-61
2021/03/02 09:43:57;;;;;;;30.08;12.75;;;;;;;;;;5003326;28;20037;-62
2021/03/02 09:46:37;;;;;;;26.98;12.80;;;;;;;;;;4980218;28;20045;-60
2021/03/02 09:49:05;;;;;;;28.55;12.30;;;;;;;;;;5005554;28;20107;-60
2021/03/02 09:51:36;;;;;;;25.77;12.45;;;;;;;;;;4998125;28;21328;-60
2021/03/02 09:54:25;;;;;;;24.58;11.77;;;;;;;;;;5004045;28;20033;-59
2021/03/02 09:56:55;;;;;;;26.73;11.88;;;;;;;;;;4980893;28;21983;-59
2021/03/02 09:59:25;;;;;;;25.13;12.27;;;;;;;;;;5005079;28;20100;-60
2021/03/02 10:01:54;;;;;;;24.65;11.77;;;;;;;;;;5004128;28;20264;-61
2021/03/02 10:04:20;;;;;;;30.73;12.98;;;;;;;;;;5004596;28;20061;-61
2021/03/02 10:06:48;;;;;;;27.58;12.55;;;;;;;;;;5006106;28;20103;-60
2021/03/02 10:09:21;;;;;;;26.45;12.32;;;;;;;;;;5004967;28;20787;-60
2021/03/02 10:11:48;;;;;;;;;;;;;;;;;;5005206;28;20029;-59
2021/03/02 10:14:16;;;;;;;28.77;12.75;;;;;;;;;;5019067;28;19924;-60
2021/03/02 10:16:44;;;;;;;26.23;12.20;;;;;;;;;;5007979;28;21690;-60
2021/03/02 10:19:21;;;;;;;25.30;12.43;;;;;;;;;;5009191;28;20041;-60
2021/03/02 10:21:46;;;;;;;25.07;11.90;;;;;;;;;;5023120;28;21388;-60
2021/03/02 10:24:22;;;;;;;23.80;12.55;;;;;;;;;;5005975;28;20041;-60
2021/03/02 10:26:51;;;;;;;27.40;13.05;;;;;;;;;;5003879;28;20033;-61
2021/03/02 10:29:19;;;;;;;23.73;11.90;;;;;;;;;;5003719;28;20068;-59
2021/03/02 10:31:46;;;;;;;25.13;12.32;;;;;;;;;;5023662;28;20025;-61
2021/03/02 10:34:12;;;;;;;21.95;11.55;;;;;;;;;;5005708;28;20385;-60
2021/03/02 10:36:42;;;;;;;27.45;12.65;;;;;;;;;;5005249;28;20029;-62
2021/03/02 10:39:13;;;;;;;21.30;10.85;;;;;;;;;;5024639;28;20024;-60
2021/03/02 10:41:39;;;;;;;20.25;11.27;;;;;;;;;;4985054;28;20025;-60
2021/03/02 10:44:07;;;;;;;23.08;11.98;;;;;;;;;;5006413;28;20033;-60
2021/03/02 10:46:33;;;;;;;23.38;11.70;;;;;;;;;;5024653;28;20090;-61
2021/03/02 10:49:01;;;;;;;19.55;10.98;;;;;;;;;;5027030;28;20155;-61
2021/03/02 10:51:30;;;;;;;20.73;10.88;;;;;;;;;;4989876;28;20731;-61
2021/03/02 10:53:58;;;;;;;22.40;12.10;;;;;;;;;;5007440;28;20155;-61
2021/03/02 10:56:24;;;;;;;22.35;11.07;;;;;;;;;;5015955;28;20116;-62
2021/03/02 10:58:52;;;;;;;24.45;12.77;;;;;;;;;;5022185;28;20029;-60
2021/03/02 11:01:18;;;;;;;24.23;12.93;;;;;;;;;;5004874;28;20123;-62
2021/03/02 11:03:46;;;;;;;23.95;12.05;;;;;;;;;;5023851;28;20101;-60
2021/03/02 11:06:22;;;;;;;21.65;11.25;;;;;;;;;;5004306;28;20534;-62
2021/03/02 11:08:51;;;;;;;23.92;11.57;;;;;;;;;;5022282;28;20113;-62
2021/03/02 11:11:17;;;;;;;24.77;12.75;;;;;;;;;;5006547;28;20025;-61
2021/03/02 11:13:46;;;;;;;22.60;12.43;;;;;;;;;;5024450;28;21994;-60
2021/03/02 11:16:14;;;;;;;22.10;11.75;;;;;;;;;;4986293;28;20515;-60
2021/03/02 11:18:39;;;;;;;23.25;12.65;;;;;;;;;;5005330;28;20103;-60
2021/03/02 11:21:05;;;;;;;20.80;12.13;;;;;;;;;;5022481;28;20025;-61
2021/03/02 11:23:31;;;;;;;23.23;12.50;;;;;;;;;;5004719;28;20037;-60
2021/03/02 11:25:59;;;;;;;22.85;12.77;;;;;;;;;;5024321;28;20111;-61
2021/03/02 11:28:26;;;;;;;22.05;12.57;;;;;;;;;;5004956;28;20132;-64
2021/03/02 11:30:54;;;;;;;22.58;12.02;;;;;;;;;;5021781;28;20071;-61
2021/03/02 11:33:22;;;;;;;20.25;11.23;;;;;;;;;;5004126;28;20037;-60
2021/03/02 11:35:48;;;;;;;19.92;11.13;;;;;;;;;;5003922;28;20095;-60
2021/03/02 11:38:14;;;;;;;19.95;12.13;;;;;;;;;;5005319;28;20029;-61
2021/03/02 11:40:41;;;;;;;22.70;12.30;;;;;;;;;;4986557;28;20055;-60
2021/03/02 11:43:06;;;;;;;19.48;11.93;;;;;;;;;;5005212;28;20033;-61
2021/03/02 11:45:36;;;;;;;24.20;12.13;;;;;;;;;;5000335;28;20028;-61
2021/03/02 11:48:07;;;;;;;22.58;12.27;;;;;;;;;;5021812;28;20044;-61
2021/03/02 11:50:39;;;;;;;27.77;12.60;;;;;;;;;;5002075;28;20032;-62
2021/03/02 11:53:05;;;;;;;23.50;12.48;;;;;;;;;;5018311;28;20025;-61
2021/03/02 11:55:30;;;;;;;23.40;12.00;;;;;;;;;;5002974;28;20118;-61
2021/03/02 11:57:55;;;;;;;20.67;11.93;;;;;;;;;;5020631;28;20433;-62
2021/03/02 12:00:25;;;;;;;19.25;11.65;;;;;;;;;;4989487;28;20049;-61
2021/03/02 12:02:50;;;;;;;22.60;13.25;;;;;;;;;;4998931;28;21046;-59
2021/03/02 12:05:17;;;;;;;18.98;11.45;;;;;;;;;;5020377;28;20163;-60
2021/03/02 12:18:53;;;;;;;24.13;11.95;;;;;;;;;;5035746;28;20416;-61
2021/03/02 12:29:04;;;;;;;22.55;11.80;;;;;;;;;;5038576;28;20040;-62
2021/03/02 12:31:30;;;;;;;17.52;11.45;;;;;;;;;;5022594;28;20380;-60
2021/03/02 12:33:55;;;;;;;17.83;11.18;;;;;;;;;;5022555;28;20080;-58
2021/03/02 12:36:21;;;;;;;18.17;11.05;;;;;;;;;;5041555;28;20037;-60
2021/03/02 12:38:52;;;;;;;17.00;10.98;;;;;;;;;;5023973;28;20059;-60
2021/03/02 12:41:20;;;;;;;18.17;10.88;;;;;;;;;;5009017;28;20158;-61
2021/03/02 12:43:48;;;;;;;19.25;10.68;;;;;;;;;;5022658;28;20048;-62
2021/03/02 12:46:13;;;;;;;19.27;10.73;;;;;;;;;;5006945;28;20048;-61
2021/03/02 12:48:41;;;;;;;19.95;11.75;;;;;;;;;;5025413;28;20177;-61
2021/03/02 12:51:06;;;;;;;18.13;11.25;;;;;;;;;;5007176;28;20032;-61
2021/03/02 12:53:32;;;;;;;20.27;10.90;;;;;;;;;;4990791;28;20036;-61
2021/03/02 12:55:57;;;;;;;19.10;10.50;;;;;;;;;;5020121;28;20044;-61
2021/03/02 12:58:25;;;;;;;17.38;11.30;;;;;;;;;;5023287;28;20043;-61
2021/03/02 13:00:51;;;;;;;17.33;11.40;;;;;;;;;;5041887;28;20028;-60
2021/03/02 13:03:18;;;;;;;17.70;10.52;;;;;;;;;;5023125;28;20522;-61
2021/03/02 13:05:46;;;;;;;17.75;11.65;;;;;;;;;;5022378;28;20143;-60
2021/03/02 13:08:13;;;;;;;16.80;11.15;;;;;;;;;;5040069;28;20044;-61
2021/03/02 13:10:41;;;;;;;15.27;10.52;;;;;;;;;;5041320;28;20055;-62
2021/03/02 13:13:08;;;;;;;13.93;10.13;;;;;;;;;;5009235;28;20051;-61
2021/03/02 13:15:36;;;;;;;17.65;10.50;;;;;;;;;;5043492;28;20075;-61
2021/03/02 13:18:02;;;;;;;17.73;11.00;;;;;;;;;;5025291;28;20037;-62
2021/03/02 13:20:27;;;;;;;23.92;10.77;;;;;;;;;;5006652;28;20044;-63
2021/03/02 13:22:54;;;;;;;20.13;10.73;;;;;;;;;;5043561;28;20037;-61
2021/03/02 13:25:19;;;;;;;20.38;10.00;;;;;;;;;;5024317;28;20036;-60
2021/03/02 13:27:46;;;;;;;18.20;11.13;;;;;;;;;;5007281;28;20059;-61
2021/03/02 13:30:15;;;;;;;19.02;11.75;;;;;;;;;;5042542;28;20033;-61
2021/03/02 13:32:44;;;;;;;15.80;9.77;;;;;;;;;;5022133;28;20167;-61
2021/03/02 13:35:12;;;;;;;17.60;11.68;;;;;;;;;;5042361;28;20052;-63
2021/03/02 13:37:38;;;;;;;16.77;10.90;;;;;;;;;;5006497;28;20109;-62
2021/03/02 13:40:05;;;;;;;19.08;10.95;;;;;;;;;;5022096;28;20033;-62
2021/03/02 13:42:32;;;;;;;21.15;10.63;;;;;;;;;;5041886;28;20066;-62
2021/03/02 13:44:58;;;;;;;19.05;10.57;;;;;;;;;;5024730;28;20086;-63
2021/03/02 13:47:25;;;;;;;17.58;10.80;;;;;;;;;;5028497;28;20044;-63
2021/03/02 13:49:54;;;;;;;16.17;10.73;;;;;;;;;;5023370;28;20503;-62
2021/03/02 13:52:24;;;;;;;18.10;10.57;;;;;;;;;;5008503;28;20068;-61
2021/03/02 13:54:52;;;;;;;16.60;10.70;;;;;;;;;;5007662;28;20028;-61
2021/03/02 13:57:26;;;;;;;19.02;11.27;;;;;;;;;;5043549;28;21498;-62
2021/03/02 13:59:53;;;;;;;15.65;10.70;;;;;;;;;;5043218;28;20186;-61
2021/03/02 14:02:22;;;;;;;18.02;11.35;;;;;;;;;;5018245;28;20067;-62
2021/03/02 14:04:51;;;;;;;15.52;10.02;;;;;;;;;;5019506;28;20105;-63
2021/03/02 14:07:20;;;;;;;19.20;11.93;;;;;;;;;;5023076;28;20147;-62
2021/03/02 14:09:48;;;;;;;18.13;11.10;;;;;;;;;;5042256;28;20098;-62
2021/03/02 14:12:14;;;;;;;18.23;11.35;;;;;;;;;;5024388;28;20064;-62
2021/03/02 14:14:42;;;;;;;20.10;10.77;;;;;;;;;;5023876;28;20123;-62
2021/03/02 14:17:11;;;;;;;16.52;10.52;;;;;;;;;;5026936;28;20153;-62
2021/03/02 14:19:37;;;;;;;18.77;10.93;;;;;;;;;;5044995;28;20043;-62
2021/03/02 14:22:06;;;;;;;18.85;10.82;;;;;;;;;;5046743;28;20036;-62
2021/03/02 14:24:32;;;;;;;17.55;11.13;;;;;;;;;;5026637;28;20031;-62
2021/03/02 14:27:02;;;;;;;22.40;10.55;;;;;;;;;;5046347;28;20458;-62
2021/03/02 14:29:28;;;;;;;19.30;12.15;;;;;;;;;;5027849;28;20119;-62
2021/03/02 14:31:56;;;;;;;19.73;11.40;;;;;;;;;;5009794;28;20029;-62
2021/03/02 14:34:25;;;;;;;19.58;11.52;;;;;;;;;;5008268;28;20124;-62
2021/03/02 14:36:56;;;;;;;16.35;10.15;;;;;;;;;;5027913;28;20086;-63
2021/03/02 14:39:22;;;;;;;19.15;10.88;;;;;;;;;;5026863;28;21062;-62
2021/03/02 14:41:50;;;;;;;18.55;11.38;;;;;;;;;;5026666;28;20039;-63
2021/03/02 14:44:19;;;;;;;21.25;12.18;;;;;;;;;;5045256;28;21126;-61
2021/03/02 14:46:47;;;;;;;19.25;11.27;;;;;;;;;;5009849;28;20035;-62